Time;durP1;ratioP1;P1;durP2;ratioP2;P2;SDS_P1;SDS_P2;PMS_P1;PMS_P2;Temp;Humidity;BMP_temperature;BMP_pressure;BME280_temperature;BME280_humidity;BME280_pressure;Samples;Min_cycle;Max_cycle;Signal;HPM_P1;HPM_P2
2022/09/20 00:01:20;;;;;;;1.77;0.65;;;;;;;10.89;100.00;99244.41;1741162;79;21158;-46
2022/09/20 00:03:49;;;;;;;4.03;0.50;;;;;;;10.88;100.00;99246.74;1749639;79;21001;-48
2022/09/20 00:06:18;;;;;;;0.70;0.50;;;;;;;10.91;100.00;99245.20;1740004;79;21334;-48
2022/09/20 00:08:45;;;;;;;0.85;0.60;;;;;;;10.92;100.00;99240.20;1746926;79;20942;-47
2022/09/20 00:11:20;;;;;;;2.52;0.70;;;;;;;10.95;100.00;99239.17;1741583;79;20973;-49
2022/09/20 00:13:48;;;;;;;4.40;0.70;;;;;;;10.96;100.00;99235.53;1745485;79;21142;-46
2022/09/20 00:16:25;;;;;;;0.85;0.60;;;;;;;10.98;100.00;99241.66;1742127;79;21413;-48
2022/09/20 00:18:54;;;;;;;2.10;0.57;;;;;;;11.02;100.00;99242.38;1744432;79;21112;-47
2022/09/20 00:21:23;;;;;;;2.20;0.70;;;;;;;11.01;100.00;99241.50;1746552;79;20978;-49
2022/09/20 00:23:51;;;;;;;1.82;0.70;;;;;;;11.02;100.00;99245.06;1747886;79;21412;-47
2022/09/20 00:26:17;;;;;;;8.53;0.60;;;;;;;11.00;100.00;99247.36;1745286;79;21138;-47
2022/09/20 00:28:45;;;;;;;5.05;0.70;;;;;;;10.99;100.00;99242.06;1736146;79;20982;-49
2022/09/20 00:31:12;;;;;;;2.25;0.80;;;;;;;10.96;100.00;99236.39;1739725;79;20998;-47
2022/09/20 00:36:23;;;;;;;0.70;0.60;;;;;;;10.94;100.00;99232.92;1745259;79;20982;-47
2022/09/20 00:38:56;;;;;;;1.30;0.60;;;;;;;10.93;100.00;99227.14;1743336;79;21098;-47
2022/09/20 00:41:23;;;;;;;2.52;0.60;;;;;;;10.90;100.00;99230.47;1746235;79;20950;-47
2022/09/20 00:43:49;;;;;;;0.93;0.60;;;;;;;10.88;100.00;99235.97;1741785;79;21471;-47
2022/09/20 00:46:26;;;;;;;0.62;0.60;;;;;;;10.85;100.00;99225.37;1742796;79;21064;-48
2022/09/20 00:48:58;;;;;;;1.37;0.60;;;;;;;10.80;100.00;99227.44;1740052;79;21120;-47
2022/09/20 00:53:46;;;;;;;0.60;0.50;;;;;;;10.72;100.00;99224.83;1793525;78;22463;-49
2022/09/20 00:56:17;;;;;;;2.15;0.42;;;;;;;10.66;100.00;99228.71;1765172;79;21592;-50
2022/09/20 00:59:22;;;;;;;3.12;0.50;;;;;;;10.62;100.00;99231.20;1736962;80;21140;-48
2022/09/20 01:01:51;;;;;;;2.58;0.65;;;;;;;10.60;100.00;99231.28;1723250;80;21519;-46
2022/09/20 01:04:19;;;;;;;2.55;0.70;;;;;;;10.61;100.00;99230.33;1740179;80;21025;-48
2022/09/20 01:06:46;;;;;;;3.17;0.70;;;;;;;10.63;100.00;99233.78;1733123;80;21057;-46
2022/09/20 01:09:13;;;;;;;3.95;0.60;;;;;;;10.65;100.00;99230.14;1705822;81;20993;-46
2022/09/20 01:11:40;;;;;;;1.02;0.60;;;;;;;10.63;100.00;99232.44;1707486;81;21153;-48
2022/09/20 01:14:06;;;;;;;3.10;0.57;;;;;;;10.63;100.00;99234.77;1670842;83;21133;-47
2022/09/20 01:16:33;;;;;;;5.37;0.60;;;;;;;10.60;100.00;99227.72;1692507;82;21017;-48
2022/09/20 01:19:02;;;;;;;3.20;0.90;;;;;;;10.60;100.00;99231.28;1696303;82;21566;-45
2022/09/20 01:21:28;;;;;;;1.37;0.60;;;;;;;10.60;100.00;99231.28;1692365;82;21093;-46
2022/09/20 01:24:09;;;;;;;2.72;0.57;;;;;;;10.59;100.00;99223.30;1694783;83;21925;-47
2022/09/20 01:27:15;;;;;;;0.50;0.50;;;;;;;10.56;100.00;99224.32;1691541;82;21490;-46
2022/09/20 01:29:56;;;;;;;1.85;0.50;;;;;;;10.55;100.00;99237.38;1696390;82;26562;-45
2022/09/20 01:32:24;;;;;;;3.67;0.60;;;;;;;10.51;100.00;99242.56;1692985;82;21166;-45
2022/09/20 01:34:54;;;;;;;3.77;0.60;;;;;;;10.49;100.00;99241.77;1695393;82;21184;-46
2022/09/20 01:37:27;;;;;;;2.65;0.65;;;;;;;10.50;100.00;99238.61;1692420;82;21155;-46
2022/09/20 01:39:59;;;;;;;2.77;0.60;;;;;;;10.48;100.00;99236.00;1691168;82;21097;-46
2022/09/20 01:42:32;;;;;;;0.80;0.70;;;;;;;10.46;100.00;99228.98;1690720;82;21148;-45
2022/09/20 01:45:13;;;;;;;1.13;0.63;;;;;;;10.37;100.00;99229.02;1689703;82;21113;-46
2022/09/20 01:48:06;;;;;;;1.35;0.70;;;;;;;10.31;100.00;99227.12;1686512;83;21659;-47
2022/09/20 01:50:55;;;;;;;2.08;0.55;;;;;;;10.26;100.00;99220.67;1664367;84;22502;-46
2022/09/20 01:53:32;;;;;;;1.40;0.57;;;;;;;10.18;100.00;99219.75;1646849;83;21347;-46
2022/09/20 01:56:22;;;;;;;8.00;0.65;;;;;;;10.12;100.00;99217.84;1690926;82;21126;-47
2022/09/20 01:59:23;;;;;;;1.50;0.50;;;;;;;10.06;100.00;99215.00;1691148;82;21134;-47
2022/09/20 02:02:06;;;;;;;2.17;0.57;;;;;;;10.02;100.00;99216.61;1692415;82;21134;-47
2022/09/20 02:04:51;;;;;;;0.78;0.57;;;;;;;9.99;100.00;99214.08;1690996;82;21264;-48
2022/09/20 02:07:43;;;;;;;3.10;0.70;;;;;;;9.97;100.00;99216.84;1689212;83;21086;-47
2022/09/20 02:11:08;;;;;;;1.10;0.72;;;;;;;9.94;100.00;99221.53;1689754;82;21147;-47
2022/09/20 02:13:46;;;;;;;1.55;0.80;;;;;;;9.91;100.00;99217.66;1691238;83;21485;-47
2022/09/20 02:16:52;;;;;;;1.55;0.80;;;;;;;9.86;100.00;99222.82;1650911;82;21069;-47
2022/09/20 02:19:39;;;;;;;1.80;0.70;;;;;;;9.82;100.00;99222.58;1694113;82;21198;-46
2022/09/20 02:22:22;;;;;;;4.97;0.65;;;;;;;9.76;100.00;99221.56;1666515;83;21084;-47
2022/09/20 02:25:17;;;;;;;1.62;0.60;;;;;;;9.72;100.00;99221.33;1643681;84;21740;-49
2022/09/20 02:27:52;;;;;;;3.60;0.60;;;;;;;9.71;100.00;99221.39;1690298;82;21646;-47
2022/09/20 02:30:47;;;;;;;4.28;0.70;;;;;;;9.69;100.00;99222.85;1696992;82;21476;-47
2022/09/20 02:33:31;;;;;;;1.90;0.70;;;;;;;9.68;100.00;99227.83;1694163;82;21273;-47
2022/09/20 02:36:29;;;;;;;1.40;0.72;;;;;;;9.67;100.00;99223.40;1689322;82;21125;-47
2022/09/20 02:39:25;;;;;;;0.90;0.80;;;;;;;9.66;100.00;99228.38;1695022;83;21100;-47
2022/09/20 02:42:23;;;;;;;1.90;0.90;;;;;;;9.62;100.00;99224.09;1690888;83;21151;-47
2022/09/20 02:44:55;;;;;;;2.12;0.80;;;;;;;9.58;100.00;99229.25;1689894;82;21128;-47
2022/09/20 02:47:37;;;;;;;3.65;0.70;;;;;;;9.53;100.00;99227.27;1694200;82;21153;-49
2022/09/20 02:50:26;;;;;;;3.92;0.70;;;;;;;9.49;100.00;99228.39;1694636;82;21619;-49
2022/09/20 02:53:28;;;;;;;1.22;0.60;;;;;;;9.49;100.00;99236.45;1682749;82;21078;-46
2022/09/20 02:56:39;;;;;;;0.85;0.60;;;;;;;9.48;100.00;99233.36;1655104;84;22531;-47
2022/09/20 02:59:24;;;;;;;4.90;0.78;;;;;;;9.50;100.00;99230.13;1657851;84;21168;-46
2022/09/20 03:02:25;;;;;;;6.72;1.22;;;;;;;9.52;100.00;99232.74;1657095;84;21970;-47
2022/09/20 03:05:32;;;;;;;2.35;0.60;;;;;;;9.54;100.00;99227.66;1655509;84;21142;-47
2022/09/20 03:08:29;;;;;;;1.02;0.70;;;;;;;9.54;100.00;99233.03;1655486;84;21504;-47
2022/09/20 03:11:19;;;;;;;1.57;0.68;;;;;;;9.57;100.00;99232.02;1660103;84;21070;-47
2022/09/20 03:14:21;;;;;;;1.17;0.70;;;;;;;9.56;100.00;99227.11;1657737;84;21061;-47
2022/09/20 03:16:53;;;;;;;5.92;0.80;;;;;;;9.55;100.00;99234.78;1660164;85;21158;-46
2022/09/20 03:20:05;;;;;;;0.70;0.60;;;;;;;9.53;100.00;99240.70;1660343;84;20982;-46
2022/09/20 03:22:59;;;;;;;5.00;0.78;;;;;;;9.49;100.00;99241.34;1660410;84;21001;-46
2022/09/20 03:26:04;;;;;;;1.12;0.68;;;;;;;9.46;100.00;99240.16;1661193;84;20954;-46
2022/09/20 03:29:06;;;;;;;3.05;0.75;;;;;;;9.41;100.00;99235.98;1659670;84;21045;-46
2022/09/20 03:31:56;;;;;;;3.33;0.60;;;;;;;9.37;100.00;99239.28;1653827;84;21785;-46
2022/09/20 03:35:05;;;;;;;1.72;0.70;;;;;;;9.37;100.00;99243.31;1657555;84;20915;-48
2022/09/20 03:37:38;;;;;;;2.47;0.70;;;;;;;9.37;100.00;99245.13;1658337;84;20995;-48
2022/09/20 03:40:19;;;;;;;1.50;0.75;;;;;;;9.41;100.00;99245.38;1660434;84;21593;-48
2022/09/20 03:42:47;;;;;;;2.52;0.70;;;;;;;9.43;100.00;99246.17;1666581;84;21346;-49
2022/09/20 03:45:56;;;;;;;2.77;0.72;;;;;;;9.45;100.00;99252.31;1698958;82;21618;-48
2022/09/20 03:49:02;;;;;;;2.47;1.10;;;;;;;9.46;100.00;99253.58;1696736;83;21475;-48
2022/09/20 03:51:37;;;;;;;4.00;0.95;;;;;;;9.47;100.00;99251.77;1695774;83;21074;-49
2022/09/20 03:54:50;;;;;;;2.90;0.80;;;;;;;9.45;100.00;99255.00;1701507;81;21107;-49
2022/09/20 03:57:43;;;;;;;3.08;0.70;;;;;;;9.43;100.00;99259.14;1717770;81;21098;-48
2022/09/20 04:00:30;;;;;;;5.10;0.82;;;;;;;9.41;100.00;99255.66;1721265;81;21522;-49
2022/09/20 04:03:23;;;;;;;2.25;0.68;;;;;;;9.42;100.00;99250.68;1650712;84;21082;-48
2022/09/20 04:06:29;;;;;;;4.70;0.70;;;;;;;9.42;100.00;99246.65;1721662;82;21544;-46
2022/09/20 04:09:26;;;;;;;1.72;0.70;;;;;;;9.42;100.00;99243.97;1718651;82;21059;-46
2022/09/20 04:12:05;;;;;;;5.45;1.35;;;;;;;9.44;100.00;99250.10;1724942;81;21232;-46
2022/09/20 04:14:48;;;;;;;2.67;0.72;;;;;;;9.45;100.00;99245.59;1649887;84;21523;-46
2022/09/20 04:17:41;;;;;;;2.85;0.80;;;;;;;9.45;100.00;99241.09;1725232;81;21081;-49
2022/09/20 04:20:31;;;;;;;2.27;0.72;;;;;;;9.46;100.00;99250.03;1729614;80;21431;-49
2022/09/20 04:23:01;;;;;;;1.22;0.80;;;;;;;9.44;100.00;99243.38;1716842;80;21084;-46
2022/09/20 04:25:33;;;;;;;0.90;0.60;;;;;;;9.41;100.00;99246.72;1724891;81;21109;-46
2022/09/20 04:28:05;;;;;;;2.47;0.70;;;;;;;9.40;100.00;99253.04;1719764;81;21133;-46
2022/09/20 04:30:36;;;;;;;1.87;0.70;;;;;;;9.40;100.00;99261.97;1720172;81;21474;-47
2022/09/20 04:33:19;;;;;;;7.08;0.75;;;;;;;9.40;100.00;99261.97;1729138;81;21072;-46
2022/09/20 04:36:29;;;;;;;3.75;1.00;;;;;;;9.40;100.00;99261.97;1652753;84;21639;-46
2022/09/20 04:39:16;;;;;;;1.20;0.60;;;;;;;9.42;100.00;99252.50;1719552;81;21131;-47
2022/09/20 04:42:32;;;;;;;2.65;0.70;;;;;;;9.45;100.00;99262.59;1649288;84;21193;-47
2022/09/20 04:45:29;;;;;;;7.28;0.85;;;;;;;9.49;100.00;99264.66;1722896;81;21521;-47
2022/09/20 04:48:10;;;;;;;3.60;0.82;;;;;;;9.55;100.00;99272.86;1651803;85;21109;-47
2022/09/20 04:51:18;;;;;;;2.10;0.90;;;;;;;9.58;100.00;99268.22;1720130;82;22702;-47
2022/09/20 04:54:20;;;;;;;3.65;0.88;;;;;;;9.62;100.00;99270.25;1736005;80;21543;-47
2022/09/20 04:57:09;;;;;;;4.28;0.90;;;;;;;9.66;100.00;99270.50;1738031;81;21156;-47
2022/09/20 05:00:13;;;;;;;1.75;0.85;;;;;;;9.71;100.00;99273.80;1744089;81;21113;-47
2022/09/20 05:03:09;;;;;;;2.62;0.80;;;;;;;9.75;100.00;99277.61;1737977;80;21723;-47
2022/09/20 05:05:48;;;;;;;5.37;0.70;;;;;;;9.82;100.00;99268.74;1738769;81;21114;-47
2022/09/20 05:08:43;;;;;;;6.10;0.80;;;;;;;9.87;100.00;99268.02;1738112;81;21112;-47
2022/09/20 05:11:50;;;;;;;3.22;0.75;;;;;;;9.93;100.00;99265.50;1737008;80;21150;-47
2022/09/20 05:15:13;;;;;;;2.08;0.90;;;;;;;9.99;100.00;99267.38;1738264;81;21066;-47
2022/09/20 05:18:32;;;;;;;4.03;1.35;;;;;;;10.06;100.00;99262.05;1741036;80;21092;-47
2022/09/20 05:21:22;;;;;;;1.35;1.10;;;;;;;10.13;100.00;99266.62;1717344;80;21021;-47
2022/09/20 05:24:12;;;;;;;1.37;1.00;;;;;;;10.18;100.00;99264.60;1719281;80;21075;-47
2022/09/20 05:26:50;;;;;;;4.85;1.30;;;;;;;10.24;100.00;99262.92;1742771;80;21564;-47
2022/09/20 05:29:25;;;;;;;1.57;1.20;;;;;;;10.28;100.00;99267.19;1678982;83;21084;-47
2022/09/20 05:32:24;;;;;;;2.35;0.90;;;;;;;10.31;100.00;99261.63;1680290;84;21033;-47
2022/09/20 05:35:07;;;;;;;2.50;1.20;;;;;;;10.31;100.00;99255.37;1607754;87;21293;-47
2022/09/20 05:37:51;;;;;;;2.53;1.30;;;;;;;10.33;100.00;99258.38;1612554;87;21104;-47
2022/09/20 05:40:52;;;;;;;1.60;1.00;;;;;;;10.38;100.00;99256.29;1639286;83;21202;-47
2022/09/20 05:43:36;;;;;;;2.65;1.40;;;;;;;10.43;100.00;99257.40;1696142;83;21778;-48
2022/09/20 05:46:52;;;;;;;2.35;1.00;;;;;;;10.50;100.00;99253.41;1698186;82;21034;-48
2022/09/20 05:49:53;;;;;;;1.52;1.25;;;;;;;10.60;100.00;99256.85;1668458;84;21096;-47
2022/09/20 05:52:50;;;;;;;1.62;1.00;;;;;;;10.68;100.00;99267.66;1688911;82;21116;-47
2022/09/20 05:55:50;;;;;;;4.03;1.40;;;;;;;10.74;100.00;99265.96;1680663;82;22249;-47
2022/09/20 05:59:03;;;;;;;3.30;1.27;;;;;;;10.78;100.00;99266.19;1720515;81;21642;-47
2022/09/20 06:01:44;;;;;;;3.25;1.40;;;;;;;10.80;100.00;99257.05;1700017;81;21141;-48
2022/09/20 06:04:18;;;;;;;2.92;1.10;;;;;;;10.82;100.00;99257.84;1720684;81;21063;-47
2022/09/20 06:07:13;;;;;;;4.78;1.90;;;;;;;10.84;100.00;99257.28;1719672;80;21345;-47
2022/09/20 06:09:57;;;;;;;1.82;1.20;;;;;;;10.87;100.00;99264.33;1652872;84;21113;-46
2022/09/20 06:12:51;;;;;;;1.37;1.20;;;;;;;10.87;100.00;99251.73;1721199;81;20963;-47
2022/09/20 06:15:35;;;;;;;2.02;1.35;;;;;;;10.88;100.00;99253.95;1718842;81;21501;-47
2022/09/20 06:18:29;;;;;;;4.22;1.15;;;;;;;10.91;100.00;99250.58;1645085;84;21062;-47
2022/09/20 06:21:30;;;;;;;2.33;1.20;;;;;;;10.97;100.00;99254.77;1693376;81;21081;-46
2022/09/20 06:23:59;;;;;;;3.17;1.20;;;;;;;11.03;100.00;99253.53;1721938;80;20931;-48
2022/09/20 06:26:28;;;;;;;5.28;1.32;;;;;;;11.08;100.00;99256.34;1722353;80;20971;-48
2022/09/20 06:29:00;;;;;;;2.58;1.20;;;;;;;11.11;100.00;99252.61;1722435;81;21036;-48
2022/09/20 06:31:27;;;;;;;2.27;0.98;;;;;;;11.12;100.00;99257.91;1704008;81;20966;-48
2022/09/20 06:34:07;;;;;;;1.60;1.00;;;;;;;11.12;100.00;99247.14;1655273;84;21034;-48
2022/09/20 06:42:28;;;;;;;2.65;1.20;;;;;;;11.20;100.00;99263.72;1721869;80;20955;-48
2022/09/20 06:44:54;;;;;;;2.62;1.00;;;;;;;11.26;100.00;99257.09;1650188;84;21078;-48
2022/09/20 06:47:22;;;;;;;1.75;1.00;;;;;;;11.29;100.00;99260.97;1722268;80;20891;-48
2022/09/20 06:49:49;;;;;;;1.60;1.32;;;;;;;11.30;100.00;99258.19;1720348;81;21445;-49
2022/09/20 06:52:17;;;;;;;2.58;1.05;;;;;;;11.34;100.00;99263.77;1720231;80;21136;-48
2022/09/20 06:54:45;;;;;;;2.35;1.20;;;;;;;11.39;100.00;99256.78;1721042;81;21047;-49
2022/09/20 06:57:14;;;;;;;1.70;1.17;;;;;;;11.45;100.00;99257.75;1653271;84;21066;-49
2022/09/20 06:59:41;;;;;;;2.25;1.00;;;;;;;11.52;100.00;99255.55;1720015;81;21395;-48
2022/09/20 07:02:08;;;;;;;1.95;1.05;;;;;;;11.65;100.00;99253.87;1721161;81;21806;-48
2022/09/20 07:04:34;;;;;;;1.15;1.05;;;;;;;11.65;100.00;99253.87;1722890;81;21181;-48
2022/09/20 07:07:05;;;;;;;1.45;0.80;;;;;;;11.70;100.00;99254.45;1717558;81;21102;-48
2022/09/20 07:09:31;;;;;;;4.12;0.80;;;;;;;11.76;100.00;99247.36;1720219;81;21042;-49
2022/09/20 07:11:58;;;;;;;3.17;0.95;;;;;;;11.82;100.00;99248.83;1722548;81;22502;-49
2022/09/20 07:14:25;;;;;;;0.98;0.80;;;;;;;11.89;100.00;99249.70;1633341;84;21139;-49
2022/09/20 07:16:53;;;;;;;2.65;0.90;;;;;;;11.89;100.00;99249.70;1716893;81;21163;-48
2022/09/20 07:19:19;;;;;;;2.20;0.70;;;;;;;11.94;100.00;99255.67;1720238;81;21124;-48
2022/09/20 07:21:45;;;;;;;2.55;0.90;;;;;;;11.98;100.00;99253.19;1652798;84;22181;-48
2022/09/20 07:24:13;;;;;;;2.17;0.90;;;;;;;12.01;100.00;99242.66;1648250;84;21145;-48
2022/09/20 07:26:57;;;;;;;3.47;0.90;;;;;;;12.01;100.00;99242.66;1722434;81;21160;-48
2022/09/20 07:29:24;;;;;;;0.90;0.80;;;;;;;11.89;100.00;99230.83;1679377;83;21562;-48
2022/09/20 07:31:50;;;;;;;2.55;0.80;;;;;;;11.89;100.00;99230.83;1678452;83;21058;-48
2022/09/20 07:34:19;;;;;;;1.07;0.80;;;;;;;11.86;100.00;99247.19;1723074;81;21106;-48
2022/09/20 07:36:48;;;;;;;2.58;0.80;;;;;;;11.86;100.00;99247.19;1721088;81;21135;-48
2022/09/20 07:39:15;;;;;;;3.22;0.75;;;;;;;11.92;100.00;99245.45;1724974;81;21163;-48
2022/09/20 07:41:50;;;;;;;1.60;0.80;;;;;;;11.92;100.00;99245.45;1718273;81;21054;-48
2022/09/20 07:44:20;;;;;;;1.95;0.80;;;;;;;12.02;100.00;99250.67;1646074;84;21750;-48
2022/09/20 07:46:48;;;;;;;2.50;0.82;;;;;;;12.03;100.00;99246.14;1721047;81;21069;-50
2022/09/20 07:49:15;;;;;;;1.50;0.82;;;;;;;12.03;100.00;99246.14;1720863;81;21121;-48
2022/09/20 07:51:41;;;;;;;2.62;0.80;;;;;;;12.06;100.00;99249.53;1724912;80;21256;-48
2022/09/20 07:54:08;;;;;;;1.22;0.88;;;;;;;12.06;100.00;99263.02;1725101;81;21038;-48
2022/09/20 07:56:35;;;;;;;1.45;1.15;;;;;;;12.03;100.00;99257.80;1723222;80;21065;-48
2022/09/20 07:59:01;;;;;;;0.98;0.80;;;;;;;12.04;100.00;99262.72;1720216;81;21291;-48
2022/09/20 08:01:28;;;;;;;1.10;0.80;;;;;;;12.03;100.00;99261.85;1720510;80;21508;-48
2022/09/20 08:03:56;;;;;;;2.05;0.80;;;;;;;12.06;100.00;99256.76;1720524;80;21501;-48
2022/09/20 08:06:22;;;;;;;1.42;0.80;;;;;;;12.06;100.00;99260.33;1719778;81;21101;-48
2022/09/20 08:08:50;;;;;;;2.08;0.62;;;;;;;12.08;100.00;99258.85;1719556;81;21098;-48
2022/09/20 08:11:24;;;;;;;4.90;0.80;;;;;;;12.11;100.00;99258.67;1719619;80;21079;-48
2022/09/20 08:13:52;;;;;;;0.98;0.70;;;;;;;12.12;100.00;99257.23;1714432;81;21066;-48
2022/09/20 08:16:19;;;;;;;3.15;0.70;;;;;;;12.13;100.00;99254.92;1716137;81;21719;-48
2022/09/20 08:18:56;;;;;;;2.25;0.75;;;;;;;12.09;100.00;99255.20;1721799;80;20920;-48
2022/09/20 08:21:31;;;;;;;7.25;0.80;;;;;;;12.09;100.00;99255.20;1718869;80;21078;-49
2022/09/20 08:23:58;;;;;;;1.62;0.70;;;;;;;12.11;100.00;99264.07;1721168;80;21256;-48
2022/09/20 08:26:27;;;;;;;4.92;0.70;;;;;;;12.08;100.00;99254.33;1717607;81;21074;-48
2022/09/20 08:28:55;;;;;;;1.00;0.70;;;;;;;12.05;100.00;99253.19;1724002;80;21185;-48
2022/09/20 08:31:24;;;;;;;1.07;0.90;;;;;;;12.11;100.00;99260.89;1721775;81;21778;-48
2022/09/20 08:33:51;;;;;;;20.97;2.80;;;;;;;12.17;100.00;99262.33;1724065;81;21717;-49
2022/09/20 08:36:20;;;;;;;2.40;0.80;;;;;;;12.24;100.00;99258.80;1719218;80;21106;-50
2022/09/20 08:38:46;;;;;;;2.15;0.90;;;;;;;12.29;100.00;99259.36;1722368;81;21061;-49
2022/09/20 08:41:18;;;;;;;1.40;0.80;;;;;;;12.29;100.00;99253.48;1723689;81;21256;-49
2022/09/20 08:43:55;;;;;;;3.10;0.70;;;;;;;12.32;100.00;99251.08;1722480;80;22302;-49
2022/09/20 08:46:26;;;;;;;2.05;0.70;;;;;;;12.33;100.00;99246.94;1651212;84;21339;-49
2022/09/20 08:48:52;;;;;;;2.35;0.60;;;;;;;12.37;100.00;99252.52;1723586;80;20973;-49
2022/09/20 08:51:18;;;;;;;2.47;0.80;;;;;;;12.40;100.00;99246.06;1718923;80;21089;-49
2022/09/20 08:53:48;;;;;;;5.28;0.80;;;;;;;12.40;100.00;99246.93;1726383;80;21523;-49
2022/09/20 08:56:16;;;;;;;5.58;1.00;;;;;;;12.35;100.00;99253.08;1725433;81;21100;-49
2022/09/20 08:58:42;;;;;;;1.60;0.90;;;;;;;12.29;100.00;99248.08;1711781;80;21137;-48
2022/09/20 09:01:13;;;;;;;2.72;1.37;;;;;;;12.26;100.00;99246.91;1720847;81;21544;-49
2022/09/20 09:03:39;;;;;;;6.10;1.00;;;;;;;12.26;100.00;99251.44;1716283;81;21600;-48
2022/09/20 09:06:10;;;;;;;2.42;1.10;;;;;;;12.30;100.00;99250.30;1645858;84;21127;-48
2022/09/20 09:08:37;;;;;;;9.30;1.02;;;;;;;12.34;100.00;99251.34;1725614;81;20922;-49
2022/09/20 09:11:08;;;;;;;1.70;1.07;;;;;;;12.42;100.00;99246.80;1724818;80;20934;-49
2022/09/20 09:14:46;;;;;;;4.70;1.00;;;;;;;12.50;100.00;99244.52;1726323;80;21525;-49
2022/09/20 09:16:34;;;;;;;3.22;0.90;;;;;;;12.54;100.00;99248.73;1650567;84;21038;-49
2022/09/20 09:19:32;;;;;;;4.47;1.10;;;;;;;12.55;100.00;99245.55;1721594;80;21209;-49
2022/09/20 09:22:00;;;;;;;11.15;1.52;;;;;;;12.58;100.00;99248.94;1723200;81;20897;-50
2022/09/20 09:24:26;;;;;;;3.50;1.10;;;;;;;12.57;100.00;99245.85;1720628;81;20946;-50
2022/09/20 09:27:15;;;;;;;5.95;1.25;;;;;;;12.58;100.00;99245.37;1727679;81;21441;-50
2022/09/20 09:29:53;;;;;;;5.12;1.02;;;;;;;12.57;100.00;99245.85;1728544;81;21523;-50
2022/09/20 09:32:29;;;;;;;3.35;1.50;;;;;;;12.58;100.00;99244.02;1723900;80;21256;-50
2022/09/20 09:34:58;;;;;;;6.45;1.62;;;;;;;12.58;100.00;99240.84;1718289;81;20880;-50
2022/09/20 09:37:27;;;;;;;8.45;1.90;;;;;;;12.60;100.00;99238.87;1723134;80;20864;-50
2022/09/20 09:40:15;;;;;;;4.80;1.42;;;;;;;12.61;100.00;99237.05;1723444;80;21792;-50
2022/09/20 09:42:56;;;;;;;3.77;1.20;;;;;;;12.64;100.00;99239.08;1723213;81;20908;-50
2022/09/20 09:45:35;;;;;;;5.75;1.47;;;;;;;12.67;100.00;99238.03;1716452;82;21454;-50
2022/09/20 09:48:01;;;;;;;2.40;1.37;;;;;;;12.69;100.00;99238.29;1725316;80;20923;-49
2022/09/20 09:50:31;;;;;;;4.83;1.70;;;;;;;12.70;100.00;99229.22;1723033;81;21933;-50
2022/09/20 09:53:04;;;;;;;6.72;1.42;;;;;;;12.72;100.00;99227.78;1721917;80;21013;-50
2022/09/20 09:55:42;;;;;;;8.53;1.40;;;;;;;12.74;100.00;99228.55;1717375;81;21061;-50
2022/09/20 09:58:27;;;;;;;8.10;2.85;;;;;;;12.74;100.00;99227.20;1706021;82;21278;-51
2022/09/20 10:00:53;;;;;;;6.72;2.35;;;;;;;12.75;100.00;99223.06;1678148;82;21596;-50
2022/09/20 10:03:34;;;;;;;3.95;1.95;;;;;;;12.76;100.00;99218.02;1719292;82;21079;-50
2022/09/20 10:06:31;;;;;;;5.95;1.10;;;;;;;12.78;100.00;99221.48;1715013;80;21066;-50
2022/09/20 10:09:22;;;;;;;1.62;1.10;;;;;;;12.81;100.00;99218.59;1653618;85;21037;-51
2022/09/20 10:11:57;;;;;;;1.30;1.00;;;;;;;12.82;100.00;99213.58;1686267;82;21600;-49
2022/09/20 10:15:03;;;;;;;2.30;0.95;;;;;;;12.81;100.00;99209.14;1715242;80;21059;-49
2022/09/20 10:17:47;;;;;;;1.37;0.90;;;;;;;12.81;100.00;99217.25;1714566;81;21082;-49
2022/09/20 10:20:29;;;;;;;1.50;0.95;;;;;;;12.84;100.00;99214.33;1717388;81;21459;-50
2022/09/20 10:23:23;;;;;;;0.70;0.62;;;;;;;12.91;100.00;99212.59;1718166;80;21067;-50
2022/09/20 10:26:05;;;;;;;1.37;0.90;;;;;;;12.92;100.00;99210.28;1724256;81;21864;-50
2022/09/20 10:28:49;;;;;;;2.02;0.90;;;;;;;12.82;100.00;99201.43;1651170;84;22281;-50
2022/09/20 10:31:36;;;;;;;1.05;0.80;;;;;;;12.80;100.00;99199.78;1715171;82;21565;-50
2022/09/20 10:34:40;;;;;;;1.45;0.68;;;;;;;12.77;100.00;99209.43;1715886;82;21112;-50
2022/09/20 10:37:21;;;;;;;1.65;0.70;;;;;;;12.74;100.00;99205.60;1676009;83;21537;-50
2022/09/20 10:39:52;;;;;;;0.75;0.60;;;;;;;12.73;100.00;99197.11;1711926;81;21139;-50
2022/09/20 10:45:48;;;;;;;1.67;0.50;;;;;;;12.64;100.00;99202.63;1725433;81;21035;-49
2022/09/20 10:48:32;;;;;;;0.50;0.30;;;;;;;12.65;100.00;99198.10;1721645;82;21096;-49
2022/09/20 10:51:19;;;;;;;0.40;0.30;;;;;;;12.66;100.00;99197.14;1652103;85;21616;-49
2022/09/20 10:54:20;;;;;;;1.50;0.40;;;;;;;12.64;100.00;99181.03;1691494;83;21238;-49
2022/09/20 10:56:50;;;;;;;1.50;0.40;;;;;;;12.58;100.00;99184.63;1672668;83;21129;-50
2022/09/20 10:59:59;;;;;;;0.65;0.45;;;;;;;12.52;100.00;99177.77;1685872;83;21110;-50
2022/09/20 11:02:40;;;;;;;1.37;0.50;;;;;;;12.51;100.00;99180.08;1680300;83;21084;-50
2022/09/20 11:05:38;;;;;;;1.70;0.50;;;;;;;12.48;100.00;99175.77;1705041;83;21061;-50
2022/09/20 11:08:21;;;;;;;0.75;0.50;;;;;;;12.46;100.00;99174.12;1673454;84;21550;-50
2022/09/20 11:10:54;;;;;;;0.42;0.30;;;;;;;12.47;100.00;99171.82;1692849;83;21089;-49
2022/09/20 11:13:41;;;;;;;3.33;0.57;;;;;;;12.41;100.00;99170.87;1696486;83;22600;-51
2022/09/20 11:16:17;;;;;;;1.15;0.65;;;;;;;12.37;100.00;99174.72;1694821;82;21106;-49
2022/09/20 11:18:52;;;;;;;0.90;0.62;;;;;;;12.31;100.00;99171.08;1696954;83;21642;-49
2022/09/20 11:21:24;;;;;;;1.20;0.80;;;;;;;12.29;100.00;99175.70;1696863;82;21163;-51
2022/09/20 11:24:04;;;;;;;2.22;0.68;;;;;;;12.29;100.00;99175.22;1696630;83;21078;-49
2022/09/20 11:26:51;;;;;;;0.70;0.40;;;;;;;12.30;100.00;99178.79;1695080;83;21038;-49
2022/09/20 11:29:36;;;;;;;2.33;0.40;;;;;;;12.30;100.00;99176.95;1699792;83;21047;-48
2022/09/20 11:32:31;;;;;;;0.50;0.30;;;;;;;12.31;100.00;99184.58;1677937;83;21088;-49
2022/09/20 11:35:15;;;;;;;1.70;0.30;;;;;;;12.31;100.00;99183.22;1617134;83;25228;-49
2022/09/20 11:37:58;;;;;;;0.68;0.50;;;;;;;12.32;100.00;99184.48;1683921;83;21058;-49
2022/09/20 11:40:32;;;;;;;1.02;0.60;;;;;;;12.35;100.00;99182.05;1664802;83;21653;-49
2022/09/20 11:43:01;;;;;;;0.60;0.50;;;;;;;12.34;100.00;99174.91;1685047;83;21065;-49
2022/09/20 11:45:27;;;;;;;0.40;0.40;;;;;;;12.32;100.00;99176.87;1685915;83;21043;-49
2022/09/20 11:47:59;;;;;;;1.72;0.45;;;;;;;12.30;100.00;99177.44;1686540;83;22295;-49
2022/09/20 11:51:11;;;;;;;0.72;0.40;;;;;;;12.29;100.00;99174.35;1685313;83;21089;-49
2022/09/20 11:54:13;;;;;;;0.70;0.50;;;;;;;12.27;100.00;99164.13;1661025;83;21141;-49
2022/09/20 11:56:40;;;;;;;1.25;0.40;;;;;;;12.29;100.00;99167.61;1674969;83;21098;-49
2022/09/20 11:59:11;;;;;;;2.45;0.85;;;;;;;12.31;100.00;99166.55;1670953;84;21520;-48
2022/09/20 12:01:40;;;;;;;0.60;0.40;;;;;;;12.31;100.00;99167.90;1665102;84;23030;-49
2022/09/20 12:04:22;;;;;;;1.07;0.70;;;;;;;12.32;100.00;99168.28;1668956;84;21495;-48
2022/09/20 12:07:07;;;;;;;2.77;0.90;;;;;;;12.33;100.00;99175.42;1669356;84;21563;-48
2022/09/20 12:09:37;;;;;;;1.37;0.72;;;;;;;12.35;100.00;99169.42;1671657;84;21606;-49
2022/09/20 12:12:30;;;;;;;0.90;0.80;;;;;;;12.40;100.00;99170.01;1677834;84;20931;-49
2022/09/20 12:14:59;;;;;;;2.35;0.70;;;;;;;12.41;100.00;99164.13;1668573;84;21847;-49
2022/09/20 12:17:51;;;;;;;0.90;0.68;;;;;;;12.37;100.00;99158.53;1711563;81;21000;-48
2022/09/20 12:20:41;;;;;;;1.40;0.70;;;;;;;12.35;100.00;99159.10;1709296;81;20881;-48
2022/09/20 12:23:41;;;;;;;1.12;0.70;;;;;;;12.32;100.00;99153.45;1710534;81;21984;-49
2022/09/20 12:26:20;;;;;;;0.70;0.60;;;;;;;12.34;100.00;99156.02;1716764;81;20926;-49
2022/09/20 12:28:51;;;;;;;1.20;0.70;;;;;;;12.35;100.00;99151.88;1715198;81;21119;-49
2022/09/20 12:31:32;;;;;;;2.55;1.22;;;;;;;12.36;100.00;99154.96;1713005;81;21334;-49
2022/09/20 12:34:11;;;;;;;1.27;0.90;;;;;;;12.33;100.00;99152.97;1709766;81;21068;-49
2022/09/20 12:36:42;;;;;;;3.87;1.42;;;;;;;12.27;100.00;99157.39;1710525;81;21278;-50
2022/09/20 12:39:14;;;;;;;2.98;0.80;;;;;;;12.23;100.00;99145.08;1720271;81;21017;-49
2022/09/20 12:42:02;;;;;;;0.80;0.80;;;;;;;12.19;100.00;99144.39;1713710;81;21440;-51
2022/09/20 12:44:52;;;;;;;1.37;0.60;;;;;;;12.03;100.00;99141.81;1723675;81;20945;-51